Time;durP1;ratioP1;P1;durP2;ratioP2;P2;SDS_P1;SDS_P2;PMS_P1;PMS_P2;Temp;Humidity;BMP_temperature;BMP_pressure;BME280_temperature;BME280_humidity;BME280_pressure;Samples;Min_cycle;Max_cycle;Signal;HPM_P1;HPM_P2
2021/07/05 00:00:34;;;;;;;6.15;3.85;;;;;;;22.57;71.45;99245.87;1730559;82;20969;-77
2021/07/05 00:03:01;;;;;;;7.67;3.85;;;;;;;22.57;71.46;99245.05;1706563;84;20946;-77
2021/07/05 00:05:27;;;;;;;5.78;4.00;;;;;;;22.55;71.60;99247.98;1706891;84;22162;-77
2021/07/05 00:07:55;;;;;;;6.60;3.90;;;;;;;22.55;71.65;99247.98;1719340;82;21524;-77
2021/07/05 00:10:25;;;;;;;9.00;4.17;;;;;;;22.53;71.70;99252.77;1708027;82;20949;-77
2021/07/05 00:12:54;;;;;;;7.60;4.17;;;;;;;22.51;71.74;99254.06;1706509;84;20973;-77
2021/07/05 00:15:24;;;;;;;7.17;4.28;;;;;;;22.49;71.79;99256.16;1687473;83;20937;-77
2021/07/05 00:17:54;;;;;;;5.00;3.85;;;;;;;22.46;71.89;99249.34;1718155;82;22512;-77
2021/07/05 00:20:23;;;;;;;5.75;4.08;;;;;;;22.45;71.87;99248.23;1731084;82;20930;-78
2021/07/05 00:22:52;;;;;;;10.00;4.37;;;;;;;22.41;71.89;99244.36;1706790;82;20957;-78
2021/07/05 00:25:19;;;;;;;5.55;3.70;;;;;;;22.38;71.89;99242.09;1706839;84;21112;-77
2021/07/05 00:27:45;;;;;;;9.40;4.50;;;;;;;22.36;72.01;99240.16;1706702;82;21040;-77
2021/07/05 00:30:15;;;;;;;7.40;3.92;;;;;;;22.32;72.18;99245.18;1721142;82;21848;-77
2021/07/05 00:32:45;;;;;;;6.15;4.05;;;;;;;22.27;72.26;99248.53;1708680;82;20937;-78
2021/07/05 00:35:14;;;;;;;8.65;4.40;;;;;;;22.25;72.36;99250.63;1727087;82;21005;-77
2021/07/05 00:37:40;;;;;;;4.87;4.20;;;;;;;22.23;72.43;99247.35;1733865;82;21057;-78
2021/07/05 00:40:08;;;;;;;9.43;4.67;;;;;;;22.24;72.42;99246.83;1727724;82;21070;-78
2021/07/05 00:42:36;;;;;;;7.50;4.17;;;;;;;22.20;72.54;99239.73;1706813;82;21829;-78
2021/07/05 00:45:05;;;;;;;6.30;4.08;;;;;;;22.14;72.84;99239.28;1706801;82;20990;-78
2021/07/05 00:47:33;;;;;;;6.08;4.10;;;;;;;22.11;72.88;99237.05;1715990;82;21001;-78
2021/07/05 00:50:00;;;;;;;6.05;3.90;;;;;;;22.09;72.99;99241.81;1745421;81;20957;-78
2021/07/05 00:52:27;;;;;;;6.17;4.42;;;;;;;22.08;73.09;99240.69;1749211;82;21424;-78
2021/07/05 00:54:55;;;;;;;7.08;4.20;;;;;;;22.03;73.24;99230.59;1750003;80;21001;-78
2021/07/05 00:57:25;;;;;;;9.70;4.33;;;;;;;22.02;73.30;99232.16;1730750;82;20989;-78
2021/07/05 00:59:57;;;;;;;7.28;4.70;;;;;;;22.03;73.30;99235.15;1724907;82;20968;-78
2021/07/05 01:02:24;;;;;;;8.03;4.60;;;;;;;22.04;73.38;99234.09;1720612;82;20949;-78
2021/07/05 01:04:51;;;;;;;9.18;4.55;;;;;;;22.04;73.41;99237.61;1744088;82;21032;-78
2021/07/05 01:07:19;;;;;;;10.30;4.47;;;;;;;22.05;73.42;99244.63;1739261;82;21682;-78
2021/07/05 01:09:45;;;;;;;6.65;3.92;;;;;;;22.06;73.43;99242.76;1722037;82;21041;-78
2021/07/05 01:12:13;;;;;;;7.20;4.12;;;;;;;22.08;73.46;99245.55;1720332;82;20945;-78
2021/07/05 01:14:39;;;;;;;7.22;4.50;;;;;;;22.11;73.37;99242.43;1720268;82;20978;-78
2021/07/05 01:17:15;;;;;;;6.62;4.50;;;;;;;22.13;73.32;99248.92;1720682;82;21031;-77
2021/07/05 01:19:46;;;;;;;6.15;4.25;;;;;;;22.13;73.28;99249.75;1720266;83;22693;-77
2021/07/05 01:22:13;;;;;;;9.20;4.50;;;;;;;22.14;73.28;99251.38;1739961;82;20930;-78
2021/07/05 01:24:39;;;;;;;7.62;4.60;;;;;;;22.15;73.35;99248.17;1747789;82;21468;-78
2021/07/05 01:27:06;;;;;;;9.95;4.62;;;;;;;22.13;73.30;99247.05;1725503;82;21479;-78
2021/07/05 01:29:33;;;;;;;10.32;4.42;;;;;;;22.13;73.37;99240.86;1729483;82;21425;-78
2021/07/05 01:31:59;;;;;;;5.78;4.58;;;;;;;22.09;73.36;99249.88;1750379;82;22450;-78
2021/07/05 01:34:25;;;;;;;9.25;4.08;;;;;;;22.04;73.35;99246.20;1745077;82;21024;-77
2021/07/05 01:36:53;;;;;;;7.28;4.42;;;;;;;21.99;73.50;99246.33;1736572;82;20949;-78
2021/07/05 01:39:20;;;;;;;6.90;4.58;;;;;;;21.93;73.59;99245.89;1732528;82;20976;-78
2021/07/05 01:41:47;;;;;;;6.45;4.50;;;;;;;21.88;73.79;99246.25;1727355;82;21061;-78
2021/07/05 01:44:14;;;;;;;7.58;4.92;;;;;;;21.85;73.95;99255.59;1725213;82;22787;-77
2021/07/05 01:46:41;;;;;;;9.83;5.05;;;;;;;21.81;74.29;99248.17;1734855;82;21297;-77
2021/07/05 01:49:08;;;;;;;10.18;5.00;;;;;;;21.71;74.57;99244.16;1718917;83;21035;-77
2021/07/05 01:51:35;;;;;;;7.30;4.70;;;;;;;21.64;74.80;99243.39;1726469;82;20950;-77
2021/07/05 01:54:02;;;;;;;6.42;4.42;;;;;;;21.62;74.92;99247.35;1719307;82;21441;-77
2021/07/05 01:56:29;;;;;;;7.05;4.70;;;;;;;21.60;74.97;99246.20;1732431;82;21799;-77
2021/07/05 01:58:55;;;;;;;6.10;4.50;;;;;;;21.61;75.06;99253.73;1744110;82;21028;-77
2021/07/05 02:01:22;;;;;;;7.05;4.80;;;;;;;21.57;75.30;99254.71;1743978;82;20945;-77
2021/07/05 02:03:49;;;;;;;7.22;4.70;;;;;;;21.53;75.48;99255.39;1717692;82;21000;-77
2021/07/05 02:06:16;;;;;;;7.78;4.42;;;;;;;21.51;75.62;99247.52;1733387;82;21085;-77
2021/07/05 02:08:43;;;;;;;9.38;5.33;;;;;;;21.51;75.71;99250.73;1733564;82;22460;-77
2021/07/05 02:11:09;;;;;;;7.28;4.80;;;;;;;21.51;75.85;99259.61;1715059;82;20996;-77
2021/07/05 02:13:37;;;;;;;11.28;5.10;;;;;;;21.51;75.84;99264.16;1716313;82;21123;-77
2021/07/05 02:16:04;;;;;;;7.22;4.65;;;;;;;21.52;75.85;99261.28;1722169;82;20966;-77
2021/07/05 02:18:32;;;;;;;8.20;4.62;;;;;;;21.54;75.78;99261.06;1743955;82;20985;-77
2021/07/05 02:21:03;;;;;;;9.35;5.00;;;;;;;21.56;75.73;99258.97;1742599;82;21851;-77
2021/07/05 02:23:29;;;;;;;7.42;4.80;;;;;;;21.58;75.69;99261.73;1714969;82;21053;-77
2021/07/05 02:25:57;;;;;;;9.45;5.15;;;;;;;21.57;75.65;99266.80;1714526;83;21044;-77
2021/07/05 02:28:26;;;;;;;6.28;4.60;;;;;;;21.58;75.58;99257.70;1741210;82;21467;-78
2021/07/05 02:30:53;;;;;;;7.28;4.90;;;;;;;21.60;75.52;99250.75;1743090;82;20945;-77
2021/07/05 02:33:25;;;;;;;7.97;4.55;;;;;;;21.62;75.48;99252.20;1741549;82;21795;-77
2021/07/05 02:35:52;;;;;;;7.53;4.83;;;;;;;21.65;75.39;99250.41;1744016;82;20934;-77
2021/07/05 02:38:19;;;;;;;6.25;4.85;;;;;;;21.68;75.33;99251.30;1720383;82;21175;-77
2021/07/05 02:40:50;;;;;;;7.30;4.65;;;;;;;21.68;75.31;99251.30;1714393;82;21528;-77
2021/07/05 02:43:18;;;;;;;7.00;4.70;;;;;;;21.70;75.37;99250.55;1714903;82;21578;-77
2021/07/05 02:45:48;;;;;;;6.67;5.08;;;;;;;21.70;75.46;99255.10;1718118;82;21721;-77
2021/07/05 02:48:17;;;;;;;9.33;5.00;;;;;;;21.70;75.49;99256.45;1742362;81;20985;-78
2021/07/05 02:50:48;;;;;;;7.80;5.00;;;;;;;21.70;75.48;99259.95;1731701;81;21000;-78
2021/07/05 02:53:15;;;;;;;10.48;5.05;;;;;;;21.71;75.49;99262.97;1746791;82;21724;-78
2021/07/05 02:55:41;;;;;;;8.80;4.78;;;;;;;21.73;75.43;99266.78;1742185;82;21476;-78
2021/07/05 02:58:09;;;;;;;7.33;5.10;;;;;;;21.76;75.37;99265.50;1720508;82;21721;-77
2021/07/05 03:00:39;;;;;;;6.30;4.65;;;;;;;21.77;75.40;99267.14;1737632;82;21106;-79
2021/07/05 03:03:05;;;;;;;7.83;4.53;;;;;;;21.74;75.42;99261.70;1732421;82;21468;-78
2021/07/05 03:05:34;;;;;;;8.10;4.87;;;;;;;21.74;75.33;99263.05;1735700;82;20945;-78
2021/07/05 03:08:00;;;;;;;9.43;5.15;;;;;;;21.74;75.29;99268.42;1720337;83;20949;-77
2021/07/05 03:10:29;;;;;;;8.15;5.12;;;;;;;21.76;75.35;99264.16;1720645;82;22193;-78
2021/07/05 03:12:58;;;;;;;8.55;5.10;;;;;;;21.79;75.38;99258.33;1723596;82;21017;-78
2021/07/05 03:15:24;;;;;;;7.15;5.17;;;;;;;21.82;75.30;99252.53;1737510;82;20946;-78
2021/07/05 03:17:50;;;;;;;8.30;5.30;;;;;;;21.85;75.11;99249.39;1738402;82;21431;-78
2021/07/05 03:20:20;;;;;;;8.63;5.62;;;;;;;21.84;75.00;99249.09;1749989;82;21008;-78
2021/07/05 03:22:48;;;;;;;8.68;5.22;;;;;;;21.84;74.93;99251.78;1728690;82;21834;-78
2021/07/05 03:25:17;;;;;;;7.60;5.40;;;;;;;21.84;74.84;99251.78;1749786;82;20973;-76
2021/07/05 03:27:44;;;;;;;10.03;5.12;;;;;;;21.86;74.75;99245.13;1741306;82;20933;-77
2021/07/05 03:30:13;;;;;;;7.10;5.53;;;;;;;21.91;74.58;99237.77;1734493;82;20951;-77
2021/07/05 03:32:39;;;;;;;7.60;5.62;;;;;;;21.93;74.63;99243.73;1723658;82;21494;-77
2021/07/05 03:35:08;;;;;;;7.70;5.47;;;;;;;21.91;74.55;99239.92;1720003;83;21679;-77
2021/07/05 03:37:35;;;;;;;9.25;5.80;;;;;;;21.92;74.55;99238.06;1740064;82;21372;-77
2021/07/05 03:40:03;;;;;;;6.83;5.53;;;;;;;21.92;74.53;99233.50;1738355;80;20941;-78
2021/07/05 03:42:29;;;;;;;10.03;6.08;;;;;;;21.95;74.59;99238.95;1720481;82;20997;-77
2021/07/05 03:44:56;;;;;;;7.37;6.17;;;;;;;21.99;74.55;99236.09;1737113;82;21027;-78
2021/07/05 03:47:23;;;;;;;8.00;6.42;;;;;;;22.02;74.43;99236.20;1720427;82;22582;-78
2021/07/05 03:49:49;;;;;;;6.75;6.05;;;;;;;22.04;74.27;99233.58;1743332;81;20989;-78
2021/07/05 03:52:16;;;;;;;7.80;5.80;;;;;;;22.03;74.07;99237.31;1720392;81;21048;-76
2021/07/05 03:54:44;;;;;;;6.65;5.80;;;;;;;22.05;74.05;99239.25;1709496;82;21006;-77
2021/07/05 03:57:22;;;;;;;10.30;6.53;;;;;;;22.11;73.96;99237.05;1707569;82;21052;-77
2021/07/05 03:59:53;;;;;;;10.55;5.97;;;;;;;22.15;73.79;99236.06;1706805;82;22295;-81
2021/07/05 04:02:20;;;;;;;8.40;5.95;;;;;;;22.19;73.82;99242.62;1733577;82;21016;-79
2021/07/05 04:04:46;;;;;;;7.70;6.42;;;;;;;22.20;73.79;99242.43;1729509;82;21041;-78
2021/07/05 04:07:14;;;;;;;7.35;6.08;;;;;;;22.24;73.83;99233.38;1708875;82;21409;-78
2021/07/05 04:09:42;;;;;;;7.22;6.28;;;;;;;22.28;73.73;99235.38;1714408;82;20998;-79
2021/07/05 04:12:11;;;;;;;7.62;6.28;;;;;;;22.35;73.60;99230.45;1721817;82;22161;-73
2021/07/05 04:14:39;;;;;;;6.90;6.15;;;;;;;22.41;73.58;99233.59;1717073;82;20871;-75
2021/07/05 04:17:06;;;;;;;7.78;6.28;;;;;;;22.40;73.21;99227.92;1689777;83;21044;-76
2021/07/05 04:19:33;;;;;;;9.50;6.67;;;;;;;22.36;73.05;99223.49;1706693;82;20957;-78
2021/07/05 04:22:00;;;;;;;10.35;7.30;;;;;;;22.40;73.08;99221.19;1721963;82;21037;-77
2021/07/05 04:24:26;;;;;;;9.70;6.53;;;;;;;22.46;73.02;99227.81;1735901;82;21827;-77
2021/07/05 04:26:53;;;;;;;9.40;6.80;;;;;;;22.51;72.89;99223.93;1727866;82;21651;-74
2021/07/05 04:29:20;;;;;;;8.98;6.47;;;;;;;22.54;72.73;99228.03;1714922;82;21053;-76
2021/07/05 04:31:46;;;;;;;10.98;6.95;;;;;;;22.60;72.63;99223.63;1722920;82;21029;-75
2021/07/05 04:34:13;;;;;;;8.05;6.95;;;;;;;22.65;72.55;99231.81;1706482;82;20957;-75
2021/07/05 04:36:39;;;;;;;9.43;7.17;;;;;;;22.68;72.28;99233.55;1726915;82;22242;-75
2021/07/05 04:39:06;;;;;;;8.43;7.15;;;;;;;22.71;72.27;99231.73;1731587;81;21048;-80
2021/07/05 04:41:35;;;;;;;8.78;6.92;;;;;;;22.73;72.20;99235.02;1733501;82;21604;-76
2021/07/05 04:44:02;;;;;;;8.63;7.20;;;;;;;22.78;72.12;99232.47;1711930;82;20965;-77
2021/07/05 04:46:29;;;;;;;7.78;6.97;;;;;;;22.83;72.16;99239.32;1708903;82;21480;-77
2021/07/05 04:48:55;;;;;;;9.90;7.17;;;;;;;22.93;72.05;99234.76;1706788;84;21801;-76
2021/07/05 04:51:23;;;;;;;11.73;6.80;;;;;;;22.99;71.87;99226.30;1717783;81;20954;-79
2021/07/05 04:53:51;;;;;;;9.45;7.50;;;;;;;23.07;71.76;99221.94;1707939;82;21512;-79
2021/07/05 04:56:19;;;;;;;8.03;7.08;;;;;;;23.16;71.37;99223.21;1706508;84;20997;-79
2021/07/05 04:58:47;;;;;;;9.85;7.22;;;;;;;23.22;71.10;99216.09;1706541;84;20949;-79
2021/07/05 05:01:15;;;;;;;9.55;7.17;;;;;;;23.29;70.98;99222.20;1706557;84;21575;-79
2021/07/05 05:03:42;;;;;;;9.63;7.30;;;;;;;23.33;70.89;99214.75;1707180;82;20961;-79
2021/07/05 05:06:09;;;;;;;8.43;7.53;;;;;;;23.30;70.47;99217.92;1706492;84;21460;-79
2021/07/05 05:08:36;;;;;;;8.53;7.08;;;;;;;23.28;70.46;99222.73;1706556;83;21471;-79
2021/07/05 05:11:02;;;;;;;11.03;7.70;;;;;;;23.27;70.57;99216.23;1706808;82;20965;-79
2021/07/05 05:13:29;;;;;;;8.55;7.25;;;;;;;23.30;70.67;99223.31;1706634;84;21830;-79
2021/07/05 05:15:56;;;;;;;8.25;7.05;;;;;;;23.34;70.54;99221.78;1706851;84;21080;-79
2021/07/05 05:18:23;;;;;;;10.50;7.17;;;;;;;23.30;70.04;99216.58;1706681;83;21436;-79
2021/07/05 05:20:50;;;;;;;9.28;7.47;;;;;;;23.29;70.27;99208.73;1707580;82;21479;-79
2021/07/05 05:23:17;;;;;;;8.95;6.70;;;;;;;23.29;70.13;99213.59;1706753;84;21100;-79
2021/07/05 05:25:44;;;;;;;8.08;6.40;;;;;;;23.31;70.14;99212.00;1706623;84;21843;-79
2021/07/05 05:28:10;;;;;;;8.70;6.65;;;;;;;23.35;70.30;99208.59;1706892;82;21014;-79
2021/07/05 05:30:37;;;;;;;9.35;6.50;;;;;;;23.46;70.49;99215.61;1706653;84;21013;-79
2021/07/05 05:33:03;;;;;;;8.05;6.40;;;;;;;23.50;70.18;99217.58;1706621;84;20993;-79
2021/07/05 05:35:30;;;;;;;7.42;6.20;;;;;;;23.56;70.25;99217.19;1706541;84;21013;-79
2021/07/05 05:37:57;;;;;;;9.05;6.40;;;;;;;23.62;69.79;99218.43;1707857;82;22405;-79
2021/07/05 05:40:24;;;;;;;7.42;6.42;;;;;;;23.66;69.56;99218.80;1706577;83;20985;-79
2021/07/05 05:42:51;;;;;;;7.17;6.15;;;;;;;23.75;69.55;99217.92;1706889;82;20954;-80
2021/07/05 05:45:17;;;;;;;9.63;6.08;;;;;;;23.84;69.41;99217.33;1706644;84;21053;-80
2021/07/05 05:47:46;;;;;;;7.95;6.15;;;;;;;23.91;69.31;99221.23;1706679;83;20934;-80
2021/07/05 05:50:14;;;;;;;6.80;6.12;;;;;;;23.98;69.05;99220.05;1707880;82;21830;-80
2021/07/05 05:52:40;;;;;;;8.05;6.40;;;;;;;24.01;68.40;99224.67;1720083;83;21005;-80
2021/07/05 05:55:08;;;;;;;10.13;6.55;;;;;;;24.00;67.86;99229.25;1741402;82;20980;-79
2021/07/05 05:57:37;;;;;;;10.63;6.35;;;;;;;24.03;68.10;99225.25;1750244;82;20945;-80
2021/07/05 06:00:09;;;;;;;8.58;6.12;;;;;;;24.05;68.22;99221.81;1750047;82;21438;-79
2021/07/05 06:02:36;;;;;;;7.55;6.50;;;;;;;24.14;68.30;99228.48;1749488;82;21839;-79
2021/07/05 06:05:03;;;;;;;8.40;6.30;;;;;;;24.19;67.97;99224.52;1722321;82;21416;-80
2021/07/05 06:07:30;;;;;;;7.80;6.78;;;;;;;24.21;67.95;99222.40;1750120;82;20997;-80
2021/07/05 06:09:57;;;;;;;9.03;7.22;;;;;;;24.24;67.56;99230.86;1750005;80;21020;-80
2021/07/05 06:12:24;;;;;;;7.35;6.65;;;;;;;24.26;67.33;99231.96;1748980;82;20949;-79
2021/07/05 06:14:50;;;;;;;9.78;6.62;;;;;;;24.21;67.51;99231.84;1749951;82;21813;-79
2021/07/05 06:17:16;;;;;;;8.15;6.95;;;;;;;24.24;67.86;99236.78;1749955;82;21013;-79
2021/07/05 06:19:43;;;;;;;10.35;7.08;;;;;;;24.27;67.99;99237.11;1750046;82;21444;-80
2021/07/05 06:22:14;;;;;;;10.95;7.03;;;;;;;24.31;68.05;99235.28;1749978;82;21049;-80
2021/07/05 06:24:41;;;;;;;10.93;6.87;;;;;;;24.42;68.04;99233.95;1750028;82;20961;-78
2021/07/05 06:27:07;;;;;;;8.65;6.92;;;;;;;24.59;68.18;99238.04;1750065;82;22176;-78
2021/07/05 06:29:36;;;;;;;11.05;6.45;;;;;;;24.76;67.93;99237.56;1748889;82;20969;-79
2021/07/05 06:32:04;;;;;;;10.68;6.75;;;;;;;24.87;66.71;99233.16;1743745;82;21570;-79
2021/07/05 06:34:31;;;;;;;8.83;7.20;;;;;;;24.95;66.32;99234.66;1725468;81;20976;-80
2021/07/05 06:36:57;;;;;;;7.22;6.40;;;;;;;24.98;66.12;99236.33;1720492;82;20985;-79
2021/07/05 06:39:23;;;;;;;8.50;6.67;;;;;;;25.07;66.17;99232.73;1720170;82;22204;-80
2021/07/05 06:41:50;;;;;;;7.22;6.53;;;;;;;25.18;66.12;99228.31;1720356;83;20993;-78
2021/07/05 06:44:16;;;;;;;11.05;6.62;;;;;;;25.30;65.89;99225.03;1720142;83;21535;-79
2021/07/05 06:46:42;;;;;;;7.42;6.22;;;;;;;25.38;65.52;99220.54;1722075;82;21436;-80
2021/07/05 06:49:14;;;;;;;9.10;6.28;;;;;;;25.43;65.39;99220.63;1721215;82;21056;-79
2021/07/05 06:51:38;;;;;;;7.08;6.37;;;;;;;25.51;65.10;99228.88;1720208;83;21874;-78
2021/07/05 06:54:04;;;;;;;7.67;6.58;;;;;;;25.56;64.40;99220.28;1720289;83;21413;-80
2021/07/05 06:56:31;;;;;;;10.68;6.67;;;;;;;25.60;64.65;99225.50;1720143;83;20964;-79
2021/07/05 06:58:58;;;;;;;7.87;7.08;;;;;;;25.61;63.81;99216.86;1720073;83;21103;-80
2021/07/05 07:01:24;;;;;;;9.15;6.83;;;;;;;25.63;64.18;99205.25;1721222;82;20945;-80
2021/07/05 07:03:50;;;;;;;6.97;6.30;;;;;;;25.74;64.11;99215.17;1720513;83;21828;-80
2021/07/05 07:06:17;;;;;;;7.47;6.00;;;;;;;25.77;62.95;99216.55;1720224;83;21544;-80
2021/07/05 07:08:44;;;;;;;6.30;5.53;;;;;;;25.81;63.47;99217.71;1720114;83;20957;-80
2021/07/05 07:11:12;;;;;;;9.63;6.10;;;;;;;25.94;63.51;99210.58;1720049;83;20949;-80
2021/07/05 07:13:39;;;;;;;7.10;5.40;;;;;;;25.98;63.10;99206.86;1694207;83;21056;-79
2021/07/05 07:16:08;;;;;;;8.15;5.58;;;;;;;26.03;62.83;99210.97;1720062;83;21388;-79
2021/07/05 07:21:22;;;;;;;9.30;5.40;;;;;;;26.18;62.38;99207.93;1750013;82;20973;-80
2021/07/05 07:23:49;;;;;;;5.60;5.10;;;;;;;26.33;61.97;99200.52;1749886;82;20981;-79
2021/07/05 07:26:15;;;;;;;7.25;5.35;;;;;;;26.45;61.88;99213.97;1750029;82;21017;-79
2021/07/05 07:28:42;;;;;;;5.45;4.80;;;;;;;26.56;61.96;99204.06;1750260;82;22156;-79
2021/07/05 07:31:08;;;;;;;5.50;4.92;;;;;;;26.70;61.83;99213.41;1722348;82;21440;-79
2021/07/05 07:33:35;;;;;;;7.42;4.75;;;;;;;26.77;61.02;99208.61;1749916;82;20956;-78
2021/07/05 07:36:03;;;;;;;7.53;4.95;;;;;;;26.84;60.37;99207.87;1741117;80;21404;-78
2021/07/05 07:38:36;;;;;;;7.55;4.95;;;;;;;26.90;60.02;99212.79;1720063;82;20971;-79
2021/07/05 07:40:58;;;;;;;4.65;4.25;;;;;;;26.94;59.82;99212.03;1719167;83;21792;-79
2021/07/05 07:43:25;;;;;;;6.45;4.70;;;;;;;27.03;59.71;99214.59;1720280;82;20932;-79
2021/07/05 07:45:51;;;;;;;6.22;4.20;;;;;;;27.12;58.97;99216.30;1720215;82;20923;-79
2021/07/05 07:48:17;;;;;;;9.75;4.50;;;;;;;27.16;58.13;99220.66;1720140;83;21022;-79
2021/07/05 07:50:44;;;;;;;5.95;5.00;;;;;;;27.20;58.65;99211.73;1718122;83;20960;-79
2021/07/05 07:53:11;;;;;;;7.30;4.55;;;;;;;27.28;58.81;99207.19;1706951;82;21799;-79
2021/07/05 07:55:38;;;;;;;8.40;4.40;;;;;;;27.41;58.78;99213.24;1736214;82;20974;-78
2021/07/05 07:58:05;;;;;;;6.17;5.10;;;;;;;27.50;57.05;99211.69;1735949;82;20930;-79
2021/07/05 08:00:32;;;;;;;5.97;4.70;;;;;;;27.51;57.33;99213.34;1735884;82;20946;-79
2021/07/05 08:02:59;;;;;;;5.35;4.50;;;;;;;27.50;56.53;99210.33;1735971;81;20997;-79
2021/07/05 08:05:26;;;;;;;7.08;3.95;;;;;;;27.53;56.21;99215.25;1736119;82;21781;-79
2021/07/05 08:07:52;;;;;;;6.53;4.45;;;;;;;27.52;56.54;99214.44;1735942;82;21492;-80
2021/07/05 08:10:19;;;;;;;5.45;4.47;;;;;;;27.56;56.61;99218.25;1735150;82;21025;-80
2021/07/05 08:12:45;;;;;;;7.62;4.20;;;;;;;27.60;56.37;99215.31;1735894;82;21417;-80
2021/07/05 08:15:15;;;;;;;6.72;4.30;;;;;;;27.55;56.48;99205.77;1735921;82;20921;-78
2021/07/05 08:17:42;;;;;;;13.65;4.22;;;;;;;27.62;56.67;99217.75;1735921;82;22258;-79
2021/07/05 08:20:10;;;;;;;6.28;4.53;;;;;;;27.67;56.17;99216.45;1736077;82;21460;-79
2021/07/05 08:22:36;;;;;;;5.85;4.42;;;;;;;27.72;56.08;99215.68;1735894;82;21536;-79
2021/07/05 08:25:04;;;;;;;8.03;4.40;;;;;;;27.68;56.29;99214.01;1735951;82;20997;-79
2021/07/05 08:27:33;;;;;;;8.28;3.90;;;;;;;27.63;56.49;99220.20;1734816;82;21029;-79
2021/07/05 08:30:04;;;;;;;8.55;4.35;;;;;;;27.68;56.05;99214.01;1736016;82;21599;-79
2021/07/05 08:32:30;;;;;;;5.80;4.15;;;;;;;27.79;56.81;99214.34;1735844;82;21017;-80
2021/07/05 08:34:57;;;;;;;5.50;4.03;;;;;;;27.89;56.08;99214.43;1707560;82;21046;-79
2021/07/05 08:37:24;;;;;;;7.78;4.20;;;;;;;27.91;55.26;99206.84;1686315;84;21005;-79
2021/07/05 08:39:51;;;;;;;6.33;3.95;;;;;;;27.88;54.61;99204.62;1706536;84;20937;-79
2021/07/05 08:42:23;;;;;;;5.72;4.00;;;;;;;27.90;54.78;99193.53;1706548;83;21677;-79
2021/07/05 08:44:50;;;;;;;10.53;4.40;;;;;;;27.99;54.54;99203.32;1704737;82;21049;-78
2021/07/05 08:47:18;;;;;;;5.17;3.80;;;;;;;28.13;54.44;99209.92;1736028;82;21032;-79
2021/07/05 08:49:47;;;;;;;5.08;4.00;;;;;;;28.22;53.54;99212.41;1736268;82;20954;-79
2021/07/05 08:52:13;;;;;;;5.17;4.20;;;;;;;28.17;54.05;99215.08;1731712;82;20962;-79
2021/07/05 08:54:41;;;;;;;4.72;4.30;;;;;;;28.23;54.98;99214.84;1736123;82;21365;-79
2021/07/05 08:57:26;;;;;;;6.37;4.22;;;;;;;28.36;54.99;99217.63;1736098;82;21001;-79
2021/07/05 08:59:37;;;;;;;7.22;4.20;;;;;;;28.46;54.46;99222.28;1733394;82;21523;-80
2021/07/05 09:02:03;;;;;;;6.17;4.20;;;;;;;28.51;55.01;99221.77;1735300;82;20986;-79
2021/07/05 09:04:30;;;;;;;7.62;4.30;;;;;;;28.68;55.07;99222.91;1691994;82;20997;-79
2021/07/05 09:07:07;;;;;;;9.88;4.50;;;;;;;28.82;54.63;99223.19;1736060;82;22637;-79
2021/07/05 09:09:35;;;;;;;7.62;3.90;;;;;;;28.83;53.78;99223.47;1736376;81;21437;-79
2021/07/05 09:12:08;;;;;;;6.15;3.70;;;;;;;28.77;54.01;99226.73;1736010;82;20942;-79
2021/07/05 09:14:37;;;;;;;8.28;3.50;;;;;;;28.86;54.85;99218.05;1736075;82;20962;-79
2021/07/05 09:17:11;;;;;;;6.70;4.22;;;;;;;28.96;52.63;99220.27;1736050;82;20973;-79
2021/07/05 09:19:39;;;;;;;6.40;3.67;;;;;;;28.87;52.47;99225.94;1735595;82;21793;-79
2021/07/05 09:22:08;;;;;;;7.40;3.92;;;;;;;28.92;53.32;99220.52;1736008;81;20997;-80
2021/07/05 09:24:42;;;;;;;5.78;3.40;;;;;;;29.07;53.30;99219.19;1715229;82;20993;-80
2021/07/05 09:27:11;;;;;;;;;;;;;;;29.27;52.76;99225.17;1738611;81;21002;-80
2021/07/05 09:29:40;;;;;;;8.25;3.75;;;;;;;29.47;51.21;99222.98;1736165;82;20143;-79
2021/07/05 09:32:10;;;;;;;7.67;3.40;;;;;;;29.57;51.26;99217.56;1736047;82;21891;-79
2021/07/05 09:34:42;;;;;;;6.58;3.65;;;;;;;29.63;50.64;99223.28;1727000;82;21352;-79
2021/07/05 09:37:26;;;;;;;6.25;3.42;;;;;;;29.64;51.05;99222.19;1736052;82;21025;-79
2021/07/05 09:40:07;;;;;;;6.73;3.53;;;;;;;29.71;49.89;99216.98;1735492;82;20954;-79
2021/07/05 09:42:43;;;;;;;6.15;3.70;;;;;;;29.86;49.95;99227.84;1736232;82;20990;-80
2021/07/05 09:45:16;;;;;;;4.92;3.50;;;;;;;29.86;49.95;99227.84;1736335;82;21796;-80
2021/07/05 09:47:42;;;;;;;5.72;3.33;;;;;;;29.89;49.95;99219.94;1736571;81;21353;-79
2021/07/05 09:50:16;;;;;;;4.25;3.70;;;;;;;29.96;49.02;99217.48;1736106;82;21045;-80
2021/07/05 09:52:43;;;;;;;4.25;3.30;;;;;;;29.94;49.28;99220.48;1724438;81;21456;-80
2021/07/05 09:55:16;;;;;;;5.67;3.80;;;;;;;30.01;49.27;99227.79;1714569;83;21439;-80
2021/07/05 09:57:51;;;;;;;8.43;3.70;;;;;;;30.03;48.89;99222.09;1714676;83;22396;-80
2021/07/05 10:00:26;;;;;;;6.60;3.80;;;;;;;29.95;49.06;99222.66;1714780;82;21723;-80
2021/07/05 10:03:04;;;;;;;7.05;3.75;;;;;;;29.77;49.46;99227.59;1714569;83;20957;-79
2021/07/05 10:05:43;;;;;;;5.03;3.67;;;;;;;29.63;51.55;99226.55;1714784;83;21017;-80
2021/07/05 10:08:12;;;;;;;5.03;3.70;;;;;;;29.63;51.55;99226.55;1714189;83;21024;-79
2021/07/05 10:10:44;;;;;;;4.35;3.47;;;;;;;29.80;49.72;99224.86;1715912;82;22215;-79
2021/07/05 10:13:17;;;;;;;5.20;3.70;;;;;;;29.80;49.72;99224.86;1714660;83;21021;-80
2021/07/05 10:15:46;;;;;;;7.05;3.90;;;;;;;29.86;50.13;99225.94;1686697;83;20946;-79
2021/07/05 10:18:13;;;;;;;7.15;3.70;;;;;;;29.86;50.13;99225.94;1714493;83;20937;-79
2021/07/05 10:20:44;;;;;;;5.87;3.83;;;;;;;29.84;50.43;99221.88;1714560;83;20993;-80
2021/07/05 10:23:15;;;;;;;4.45;3.70;;;;;;;29.91;51.29;99219.66;1714540;83;21814;-80
2021/07/05 10:25:45;;;;;;;3.98;3.55;;;;;;;30.00;51.00;99219.91;1715762;82;21036;-80
2021/07/05 10:28:12;;;;;;;5.00;3.87;;;;;;;30.07;50.82;99218.55;1714592;83;20965;-79
2021/07/05 10:30:39;;;;;;;6.35;3.90;;;;;;;30.24;50.64;99214.69;1714775;83;20981;-80
2021/07/05 10:33:05;;;;;;;5.80;3.83;;;;;;;30.21;50.47;99214.70;1714576;82;20989;-79
2021/07/05 10:35:39;;;;;;;9.18;3.92;;;;;;;30.26;51.30;99216.58;1714472;83;22167;-80
2021/07/05 10:38:26;;;;;;;6.47;3.72;;;;;;;30.43;50.46;99218.41;1714920;83;20941;-80
2021/07/05 10:40:56;;;;;;;5.50;3.65;;;;;;;30.63;49.87;99219.66;1652201;85;21431;-80
2021/07/05 10:43:45;;;;;;;6.03;4.10;;;;;;;30.81;49.82;99220.95;1685880;83;20969;-80
2021/07/05 10:46:15;;;;;;;8.45;3.72;;;;;;;30.87;49.25;99223.08;1667237;83;21600;-81
2021/07/05 10:48:43;;;;;;;4.42;3.60;;;;;;;30.73;49.37;99225.08;1684812;83;20933;-80
2021/07/05 10:51:14;;;;;;;4.42;3.83;;;;;;;30.63;50.14;99223.75;1714473;83;20997;-80
2021/07/05 10:53:52;;;;;;;4.90;3.58;;;;;;;30.67;50.35;99218.02;1707377;83;21453;-80
2021/07/05 10:56:42;;;;;;;6.05;3.42;;;;;;;30.81;50.56;99218.77;1706529;84;21460;-80
2021/07/05 10:59:17;;;;;;;7.35;3.52;;;;;;;31.02;49.54;99220.25;1706543;83;21322;-80
2021/07/05 11:01:46;;;;;;;6.50;3.65;;;;;;;31.17;49.00;99216.02;1707940;82;22272;-80
2021/07/05 11:04:28;;;;;;;6.53;3.80;;;;;;;31.39;47.18;99214.25;1686681;84;20941;-80
2021/07/05 11:06:53;;;;;;;6.42;3.30;;;;;;;31.57;46.37;99214.09;1706435;83;21103;-80
2021/07/05 11:09:22;;;;;;;4.97;3.17;;;;;;;31.74;45.99;99206.25;1706602;84;21029;-80
2021/07/05 11:11:59;;;;;;;5.50;3.47;;;;;;;31.89;46.58;99212.95;1706722;84;21053;-81
2021/07/05 11:14:40;;;;;;;4.70;3.25;;;;;;;32.07;46.00;99213.30;1706669;84;22467;-80
2021/07/05 11:17:25;;;;;;;5.08;3.25;;;;;;;32.22;45.65;99207.64;1707400;82;21068;-80
2021/07/05 11:20:16;;;;;;;6.33;3.35;;;;;;;32.34;46.38;99205.91;1706640;84;20994;-80
2021/07/05 11:22:56;;;;;;;5.90;3.40;;;;;;;32.48;45.64;99201.32;1706580;84;20962;-80
2021/07/05 11:25:25;;;;;;;7.90;3.37;;;;;;;32.49;44.11;99202.95;1706638;84;20945;-79
2021/07/05 11:27:58;;;;;;;4.80;3.27;;;;;;;32.44;44.60;99201.66;1707582;82;21851;-79
2021/07/05 11:30:41;;;;;;;;;;;;;;;32.53;45.35;99205.92;1710317;84;20922;-79
2021/07/05 11:33:14;;;;;;;;;;;;;;;32.75;44.44;99202.84;1709242;82;20149;-80
2021/07/05 11:35:54;;;;;;;3.72;3.00;;;;;;;32.92;44.33;99202.36;1707359;82;20836;-80
2021/07/05 11:38:40;;;;;;;8.25;3.17;;;;;;;33.08;44.02;99202.91;1706887;84;20958;-80
2021/07/05 11:41:17;;;;;;;4.00;3.05;;;;;;;33.28;43.30;99200.38;1706894;84;22076;-80
2021/07/05 11:43:58;;;;;;;5.80;3.30;;;;;;;33.53;41.79;99190.39;1704018;84;20945;-80